createdAt,value
2022-12-24T00:00:41.269Z,12.49
2022-12-24T00:01:40.613Z,12.49
2022-12-24T00:02:40.695Z,12.42
2022-12-24T00:03:40.671Z,12.45
2022-12-24T00:04:40.593Z,12.40
2022-12-24T00:05:40.560Z,12.42
2022-12-24T00:06:40.554Z,12.42
2022-12-24T00:07:40.543Z,12.43
2022-12-24T00:08:40.529Z,12.45
2022-12-24T00:09:40.520Z,12.43
2022-12-24T00:10:40.513Z,12.47
2022-12-24T00:11:40.500Z,12.53
2022-12-24T00:12:40.491Z,12.45
2022-12-24T00:13:40.482Z,12.43
2022-12-24T00:14:40.472Z,12.37
2022-12-24T00:15:40.465Z,12.29
2022-12-24T00:16:40.503Z,12.36
2022-12-24T00:17:40.442Z,12.32
2022-12-24T00:18:45.922Z,12.39
2022-12-24T00:19:40.423Z,12.37
2022-12-24T00:20:40.408Z,12.31
2022-12-24T00:21:40.401Z,12.40
2022-12-24T00:22:40.386Z,12.35
2022-12-24T00:23:40.379Z,12.32
2022-12-24T00:24:40.369Z,12.40
2022-12-24T00:25:40.349Z,12.40
2022-12-24T00:26:40.371Z,12.39
2022-12-24T00:27:40.335Z,12.35
2022-12-24T00:28:40.362Z,12.29
2022-12-24T00:29:40.325Z,12.28
2022-12-24T00:30:40.308Z,12.27
2022-12-24T00:31:40.300Z,12.24
2022-12-24T00:32:40.304Z,12.32
2022-12-24T00:33:40.281Z,12.28
2022-12-24T00:34:40.264Z,12.29
2022-12-24T00:35:40.264Z,12.31
2022-12-24T00:36:40.246Z,12.27
2022-12-24T00:37:40.231Z,12.36
2022-12-24T00:38:40.247Z,12.42
2022-12-24T00:39:40.219Z,12.43
2022-12-24T00:40:40.204Z,12.43
2022-12-24T00:41:40.195Z,12.35
2022-12-24T00:42:40.191Z,12.32
2022-12-24T00:43:40.180Z,12.28
2022-12-24T00:44:40.179Z,12.21
2022-12-24T00:45:40.165Z,12.35
2022-12-24T00:46:40.222Z,12.22
2022-12-24T00:47:40.152Z,12.18
2022-12-24T00:48:40.126Z,12.21
2022-12-24T00:49:40.117Z,12.18
2022-12-24T00:50:40.143Z,12.20
2022-12-24T00:51:40.154Z,12.18
2022-12-24T00:52:40.089Z,12.22
2022-12-24T00:53:40.081Z,12.13
2022-12-24T00:54:40.070Z,12.09
2022-12-24T00:55:40.065Z,12.07
2022-12-24T00:56:40.046Z,12.13
2022-12-24T00:57:40.031Z,12.09
2022-12-24T00:58:40.038Z,12.09
2022-12-24T00:59:40.023Z,12.06
2022-12-24T01:00:40.005Z,12.02
2022-12-24T01:01:40.058Z,12.02
2022-12-24T01:02:40.203Z,11.90
2022-12-24T01:03:40.047Z,11.81
2022-12-24T01:04:39.971Z,11.83
2022-12-24T01:05:39.963Z,11.75
2022-12-24T01:06:39.949Z,11.70
2022-12-24T01:07:39.937Z,11.57
2022-12-24T01:08:39.933Z,11.59
2022-12-24T01:09:39.918Z,11.59
2022-12-24T01:10:39.910Z,11.50
2022-12-24T01:11:39.902Z,11.45
2022-12-24T01:12:39.896Z,11.43
2022-12-24T01:13:39.894Z,11.45
2022-12-24T01:14:39.879Z,11.36
2022-12-24T01:15:39.879Z,11.41
2022-12-24T01:16:39.873Z,11.43
2022-12-24T01:17:39.844Z,11.32
2022-12-24T01:18:39.823Z,11.32
2022-12-24T01:19:39.827Z,11.26
2022-12-24T01:20:39.814Z,11.18
2022-12-24T01:21:39.816Z,11.22
2022-12-24T01:22:39.794Z,11.17
2022-12-24T01:23:39.789Z,11.17
2022-12-24T01:24:39.776Z,11.23
2022-12-24T01:25:39.759Z,11.27
2022-12-24T01:26:39.751Z,11.27
2022-12-24T01:27:39.745Z,11.36
2022-12-24T01:28:39.735Z,11.29
2022-12-24T01:29:39.729Z,11.29
2022-12-24T01:30:39.702Z,11.30
2022-12-24T01:31:39.798Z,11.26
2022-12-24T01:32:39.697Z,11.27
2022-12-24T01:33:39.682Z,11.19
2022-12-24T01:34:39.680Z,11.26
2022-12-24T01:35:39.666Z,11.32
2022-12-24T01:36:39.653Z,11.33
2022-12-24T01:37:39.643Z,11.33
2022-12-24T01:38:39.632Z,11.23
2022-12-24T01:39:39.620Z,11.23
2022-12-24T01:40:39.610Z,11.18
2022-12-24T01:41:39.601Z,11.23
2022-12-24T01:42:39.595Z,11.18
2022-12-24T01:43:39.581Z,11.08
2022-12-24T01:44:39.569Z,11.08
2022-12-24T01:45:39.560Z,11.04
2022-12-24T01:46:39.728Z,10.97
2022-12-24T01:47:39.541Z,10.99
2022-12-24T01:48:39.543Z,10.97
2022-12-24T01:49:39.557Z,11.02
2022-12-24T01:50:39.512Z,10.99
2022-12-24T01:51:39.503Z,10.87
2022-12-24T01:52:39.496Z,10.86
2022-12-24T01:53:39.487Z,10.81
2022-12-24T01:54:39.483Z,10.79
2022-12-24T01:55:39.467Z,10.76
2022-12-24T01:56:39.459Z,10.78
2022-12-24T01:57:39.450Z,10.79
2022-12-24T01:58:39.430Z,10.93
2022-12-24T01:59:39.429Z,10.92
2022-12-24T02:00:39.414Z,10.81
2022-12-24T02:01:39.507Z,10.78
2022-12-24T02:02:39.479Z,10.86
2022-12-24T02:03:39.441Z,10.76
2022-12-24T02:04:39.372Z,10.78
2022-12-24T02:05:39.368Z,10.82
2022-12-24T02:06:39.360Z,10.90
2022-12-24T02:07:39.347Z,11.00
2022-12-24T02:08:39.369Z,11.04
2022-12-24T02:09:39.322Z,11.18
2022-12-24T02:10:39.312Z,11.17
2022-12-24T02:11:39.302Z,11.29
2022-12-24T02:12:39.299Z,11.32
2022-12-24T02:13:39.298Z,11.29
2022-12-24T02:14:39.276Z,11.26
2022-12-24T02:15:39.315Z,11.19
2022-12-24T02:16:39.330Z,11.18
2022-12-24T02:17:39.261Z,11.17
2022-12-24T02:18:39.236Z,11.22
2022-12-24T02:19:39.228Z,11.26
2022-12-24T02:20:39.217Z,11.30
2022-12-24T02:21:39.209Z,11.32
2022-12-24T02:22:39.193Z,11.30
2022-12-24T02:23:39.186Z,11.29
2022-12-24T02:24:39.182Z,11.35
2022-12-24T02:25:39.163Z,11.33
2022-12-24T02:26:39.155Z,11.41
2022-12-24T02:27:39.150Z,11.40
2022-12-24T02:28:39.138Z,11.37
2022-12-24T02:29:39.125Z,11.40
2022-12-24T02:30:39.113Z,11.36
2022-12-24T02:31:39.185Z,11.40
2022-12-24T02:32:39.099Z,11.36
2022-12-24T02:33:39.084Z,11.44
2022-12-24T02:34:39.089Z,11.48
2022-12-24T02:35:39.068Z,11.41
2022-12-24T02:36:39.061Z,11.45
2022-12-24T02:37:39.043Z,11.41
2022-12-24T02:38:39.048Z,11.37
2022-12-24T02:39:39.032Z,11.37
2022-12-24T02:40:39.014Z,11.29
2022-12-24T02:41:39.000Z,11.40
2022-12-24T02:42:38.996Z,11.36
2022-12-24T02:43:39.011Z,11.40
2022-12-24T02:44:38.969Z,11.43
2022-12-24T02:45:38.965Z,11.37
2022-12-24T02:46:38.988Z,11.40
2022-12-24T02:47:38.945Z,11.37
2022-12-24T02:48:38.933Z,11.37
2022-12-24T02:49:38.921Z,11.36
2022-12-24T02:50:38.917Z,11.48
2022-12-24T02:51:38.903Z,11.52
2022-12-24T02:52:38.904Z,11.52
2022-12-24T02:53:38.899Z,11.52
2022-12-24T02:54:38.871Z,11.62
2022-12-24T02:55:38.863Z,11.62
2022-12-24T02:56:38.860Z,11.68
2022-12-24T02:57:38.864Z,11.63
2022-12-24T02:58:38.834Z,11.65
2022-12-24T02:59:38.824Z,11.66
2022-12-24T03:00:38.866Z,11.72
2022-12-24T03:01:39.126Z,11.68
2022-12-24T03:02:38.885Z,11.69
2022-12-24T03:03:38.796Z,11.91
2022-12-24T03:04:38.779Z,11.88
2022-12-24T03:05:38.782Z,11.94
2022-12-24T03:06:38.794Z,11.90
2022-12-24T03:07:39.705Z,12.00
2022-12-24T03:08:38.730Z,11.87
2022-12-24T03:09:38.753Z,11.91
2022-12-24T03:10:38.719Z,11.90
2022-12-24T03:11:38.713Z,11.81
2022-12-24T03:12:38.711Z,11.80
2022-12-24T03:13:38.683Z,11.72
2022-12-24T03:14:38.683Z,11.72
2022-12-24T03:15:38.664Z,11.78
2022-12-24T03:16:38.717Z,11.70
2022-12-24T03:17:38.659Z,11.72
2022-12-24T03:18:38.637Z,11.69
2022-12-24T03:19:38.623Z,11.65
2022-12-24T03:20:38.622Z,11.54
2022-12-24T03:21:38.605Z,11.55
2022-12-24T03:22:38.590Z,11.59
2022-12-24T03:23:38.580Z,11.54
2022-12-24T03:24:38.591Z,11.52
2022-12-24T03:25:38.572Z,11.52
2022-12-24T03:26:38.546Z,11.51
2022-12-24T03:27:38.537Z,11.44
2022-12-24T03:28:38.534Z,11.54
2022-12-24T03:29:38.520Z,11.50
2022-12-24T03:30:38.507Z,11.44
2022-12-24T03:31:38.627Z,11.41
2022-12-24T03:32:38.487Z,11.48
2022-12-24T03:33:38.475Z,11.40
2022-12-24T03:34:38.469Z,11.44
2022-12-24T03:35:38.471Z,11.37
2022-12-24T03:36:38.448Z,11.43
2022-12-24T03:37:38.449Z,11.35
2022-12-24T03:38:39.216Z,11.35
2022-12-24T03:39:38.415Z,11.40
2022-12-24T03:40:38.406Z,11.37
2022-12-24T03:41:38.408Z,11.33
2022-12-24T03:42:38.385Z,11.29
2022-12-24T03:43:39.224Z,11.32
2022-12-24T03:44:38.370Z,11.35
2022-12-24T03:45:38.371Z,11.27
2022-12-24T03:46:38.347Z,11.27
2022-12-24T03:47:38.336Z,11.27
2022-12-24T03:48:38.328Z,11.30
2022-12-24T03:49:38.322Z,11.32
2022-12-24T03:50:38.311Z,11.41
2022-12-24T03:51:38.303Z,11.44
2022-12-24T03:52:38.284Z,11.41
2022-12-24T03:53:38.282Z,11.40
2022-12-24T03:54:38.271Z,11.40
2022-12-24T03:55:38.258Z,11.37
2022-12-24T03:56:38.250Z,11.37
2022-12-24T03:57:38.239Z,11.37
2022-12-24T03:58:38.228Z,11.37
2022-12-24T03:59:38.217Z,11.44
2022-12-24T04:00:38.244Z,11.32
2022-12-24T04:01:38.326Z,11.41
2022-12-24T04:02:38.327Z,11.40
2022-12-24T04:03:38.182Z,11.33
2022-12-24T04:04:38.165Z,11.32
2022-12-24T04:05:38.161Z,11.27
2022-12-24T04:06:38.154Z,11.29
2022-12-24T04:07:38.137Z,11.23
2022-12-24T04:08:38.131Z,11.19
2022-12-24T04:09:38.119Z,11.17
2022-12-24T04:10:38.117Z,11.05
2022-12-24T04:11:38.115Z,11.10
2022-12-24T04:12:38.078Z,11.10
2022-12-24T04:13:38.103Z,10.92
2022-12-24T04:14:38.069Z,10.97
2022-12-24T04:15:38.057Z,10.97
2022-12-24T04:16:38.102Z,10.99
2022-12-24T04:17:38.046Z,10.86
2022-12-24T04:18:38.035Z,10.92
2022-12-24T04:19:38.019Z,10.72
2022-12-24T04:20:38.010Z,10.78
2022-12-24T04:21:38.000Z,10.82
2022-12-24T04:22:37.998Z,10.75
2022-12-24T04:23:37.985Z,10.81
2022-12-24T04:24:37.971Z,10.76
2022-12-24T04:25:37.960Z,10.79
2022-12-24T04:26:37.957Z,10.75
2022-12-24T04:27:37.939Z,10.67
2022-12-24T04:28:37.935Z,10.74
2022-12-24T04:29:37.921Z,10.74
2022-12-24T04:30:37.913Z,10.74
2022-12-24T04:31:37.945Z,10.67
2022-12-24T04:32:37.900Z,10.63
2022-12-24T04:33:37.884Z,10.67
2022-12-24T04:34:37.877Z,10.67
2022-12-24T04:35:37.868Z,10.63
2022-12-24T04:36:37.846Z,10.63
2022-12-24T04:37:37.840Z,10.63
2022-12-24T04:38:37.828Z,10.60
2022-12-24T04:39:37.827Z,10.60
2022-12-24T04:40:37.809Z,10.63
2022-12-24T04:41:37.809Z,10.61
2022-12-24T04:42:37.785Z,10.60
2022-12-24T04:43:37.793Z,10.64
2022-12-24T04:44:37.776Z,10.63
2022-12-24T04:45:37.808Z,10.59
2022-12-24T04:46:37.753Z,10.60
2022-12-24T04:47:37.744Z,10.54
2022-12-24T04:48:37.734Z,10.51
2022-12-24T04:49:37.736Z,10.53
2022-12-24T04:50:37.718Z,10.57
2022-12-24T04:51:37.703Z,10.51
2022-12-24T04:52:37.692Z,10.49
2022-12-24T04:53:37.679Z,10.51
2022-12-24T04:54:37.712Z,10.48
2022-12-24T04:55:37.658Z,10.49
2022-12-24T04:56:37.653Z,10.48
2022-12-24T04:57:37.650Z,10.42
2022-12-24T04:58:37.636Z,10.40
2022-12-24T04:59:37.620Z,10.41
2022-12-24T05:00:37.610Z,10.33
2022-12-24T05:01:37.704Z,10.44
2022-12-24T05:02:37.790Z,10.46
2022-12-24T05:03:37.629Z,10.54
2022-12-24T05:04:37.571Z,10.53
2022-12-24T05:05:37.561Z,10.54
2022-12-24T05:06:37.573Z,10.54
2022-12-24T05:07:37.545Z,10.44
2022-12-24T05:08:37.529Z,10.59
2022-12-24T05:09:37.530Z,10.59
2022-12-24T05:10:37.509Z,10.71
2022-12-24T05:11:37.503Z,10.78
2022-12-24T05:12:37.486Z,10.79
2022-12-24T05:13:44.333Z,10.84
2022-12-24T05:14:37.468Z,10.96
2022-12-24T05:15:37.458Z,10.99
2022-12-24T05:16:37.502Z,10.99
2022-12-24T05:17:37.434Z,10.96
2022-12-24T05:18:37.431Z,11.05
2022-12-24T05:19:37.419Z,11.10
2022-12-24T05:20:37.407Z,11.14
2022-12-24T05:21:37.399Z,11.12
2022-12-24T05:22:37.390Z,11.15
2022-12-24T05:23:37.373Z,11.11
2022-12-24T05:24:37.389Z,11.26
2022-12-24T05:25:37.355Z,11.30
2022-12-24T05:26:37.356Z,11.27
2022-12-24T05:27:37.332Z,11.35
2022-12-24T05:28:37.338Z,11.27
2022-12-24T05:29:37.318Z,11.33
2022-12-24T05:30:37.347Z,11.32
2022-12-24T05:31:37.304Z,11.33
2022-12-24T05:32:37.285Z,11.36
2022-12-24T05:33:37.286Z,11.29
2022-12-24T05:34:37.260Z,11.36
2022-12-24T05:35:37.255Z,11.37
2022-12-24T05:36:37.259Z,11.32
2022-12-24T05:37:37.238Z,11.43
2022-12-24T05:38:37.224Z,11.37
2022-12-24T05:39:37.213Z,11.43
2022-12-24T05:40:37.199Z,11.36
2022-12-24T05:41:37.192Z,11.36
2022-12-24T05:42:37.184Z,11.30
2022-12-24T05:43:37.188Z,11.32
2022-12-24T05:44:37.164Z,11.32
2022-12-24T05:45:37.157Z,11.35
2022-12-24T05:46:37.219Z,11.30
2022-12-24T05:47:43.001Z,11.27
2022-12-24T05:48:37.122Z,11.32
2022-12-24T05:49:37.116Z,11.35
2022-12-24T05:50:37.105Z,11.29
2022-12-24T05:51:37.102Z,11.37
2022-12-24T05:52:37.099Z,11.43
2022-12-24T05:53:37.076Z,11.41
2022-12-24T05:54:37.062Z,11.40
2022-12-24T05:55:37.060Z,11.36
2022-12-24T05:56:37.073Z,11.45
2022-12-24T05:57:37.038Z,11.41
2022-12-24T05:58:37.025Z,11.41
2022-12-24T05:59:37.011Z,11.44
2022-12-24T06:00:37.010Z,11.37
2022-12-24T06:01:37.061Z,11.36
2022-12-24T06:02:37.067Z,11.35
2022-12-24T06:03:36.995Z,11.44
2022-12-24T06:04:36.985Z,11.36
2022-12-24T06:05:36.966Z,11.40
2022-12-24T06:06:36.944Z,11.44
2022-12-24T06:07:36.932Z,11.37
2022-12-24T06:08:36.954Z,11.29
2022-12-24T06:09:36.915Z,11.41
2022-12-24T06:10:36.908Z,11.30
2022-12-24T06:11:44.063Z,11.26
2022-12-24T06:13:40.844Z,11.15
2022-12-24T06:14:40.813Z,11.12
2022-12-24T06:16:44.758Z,11.00
2022-12-24T06:17:44.738Z,11.07
2022-12-24T06:19:48.674Z,11.04
2022-12-24T06:20:48.663Z,11.02
2022-12-24T06:22:41.551Z,10.86
2022-12-24T06:23:41.525Z,10.76
2022-12-24T06:25:45.452Z,10.81
2022-12-24T06:26:45.436Z,10.81
2022-12-24T06:28:49.392Z,10.72
2022-12-24T06:29:49.380Z,10.74
2022-12-24T06:31:53.369Z,10.74
2022-12-24T06:32:53.286Z,10.75
2022-12-24T06:34:57.219Z,10.76
2022-12-24T06:35:57.216Z,10.63
2022-12-24T06:38:01.162Z,10.61
2022-12-24T06:39:01.137Z,10.69
2022-12-24T06:41:05.078Z,10.49
2022-12-24T06:42:05.056Z,10.60
2022-12-24T06:44:09.052Z,10.54
2022-12-24T06:45:09.009Z,10.61
2022-12-24T06:47:12.922Z,10.64
2022-12-24T06:48:12.913Z,10.61
2022-12-24T06:50:16.921Z,10.60
2022-12-24T06:51:16.834Z,10.64
2022-12-24T06:53:20.778Z,10.74
2022-12-24T06:54:20.754Z,10.63
2022-12-24T06:56:24.827Z,10.72
2022-12-24T06:57:24.674Z,10.81
2022-12-24T06:59:28.629Z,10.81
2022-12-24T07:00:28.607Z,10.79
2022-12-24T07:02:21.552Z,10.99
2022-12-24T07:03:21.481Z,10.82
2022-12-24T07:05:25.403Z,10.96
2022-12-24T07:06:25.394Z,10.87
2022-12-24T07:08:29.341Z,10.90
2022-12-24T07:09:29.319Z,10.90
2022-12-24T07:11:33.255Z,10.89
2022-12-24T07:12:33.244Z,10.90
2022-12-24T07:14:37.187Z,10.94
2022-12-24T07:15:37.168Z,10.79
2022-12-24T07:17:41.142Z,10.84
2022-12-24T07:18:41.091Z,10.87
2022-12-24T07:20:45.032Z,10.87
2022-12-24T07:21:45.011Z,10.78
2022-12-24T07:23:48.953Z,10.89
2022-12-24T07:24:48.935Z,10.81
2022-12-24T07:26:52.880Z,10.81
2022-12-24T07:27:52.857Z,10.87
2022-12-24T07:29:56.805Z,10.79
2022-12-24T07:30:56.883Z,10.72
2022-12-24T07:33:00.729Z,10.79
2022-12-24T07:34:00.709Z,10.78
2022-12-24T07:36:04.642Z,10.76
2022-12-24T07:37:04.630Z,10.96
2022-12-24T07:39:08.576Z,10.90
2022-12-24T07:40:08.555Z,10.93
2022-12-24T07:42:01.427Z,11.04
2022-12-24T07:43:01.408Z,10.90
2022-12-24T07:45:05.352Z,10.92
2022-12-24T07:46:05.334Z,10.94
2022-12-24T07:48:09.288Z,10.92
2022-12-24T07:49:09.263Z,10.92
2022-12-24T07:51:13.193Z,10.94
2022-12-24T07:52:13.178Z,10.89
2022-12-24T07:54:17.131Z,10.86
2022-12-24T07:55:17.111Z,10.92
2022-12-24T07:57:21.039Z,10.92
2022-12-24T07:58:21.027Z,10.92
2022-12-24T08:00:24.985Z,11.02
2022-12-24T08:01:25.081Z,10.97
2022-12-24T08:03:29.065Z,11.05
2022-12-24T08:04:28.914Z,11.02
2022-12-24T08:06:33.427Z,11.02
2022-12-24T08:07:33.028Z,11.00
2022-12-24T08:09:36.976Z,10.96
2022-12-24T08:10:36.955Z,10.94
2022-12-24T08:12:29.829Z,10.97
2022-12-24T08:13:29.806Z,11.02
2022-12-24T08:15:33.771Z,10.90
2022-12-24T08:16:33.832Z,10.89
2022-12-24T08:18:37.676Z,10.84
2022-12-24T08:19:37.654Z,10.86
2022-12-24T08:21:41.609Z,10.84
2022-12-24T08:22:41.578Z,10.92
2022-12-24T08:24:45.529Z,10.81
2022-12-24T08:25:45.507Z,10.76
2022-12-24T08:27:49.455Z,10.78
2022-12-24T08:28:49.435Z,10.79
2022-12-24T08:30:53.375Z,10.81
2022-12-24T08:31:53.436Z,10.79
2022-12-24T08:33:57.317Z,10.78
2022-12-24T08:34:57.277Z,10.72
2022-12-24T08:37:01.216Z,10.76
2022-12-24T08:38:01.207Z,10.81
2022-12-24T08:40:05.153Z,10.82
2022-12-24T08:41:05.125Z,10.94
2022-12-24T08:43:09.067Z,10.84
2022-12-24T08:44:09.049Z,10.87
2022-12-24T08:46:13.059Z,10.99
2022-12-24T08:47:12.970Z,10.89
2022-12-24T08:49:16.919Z,10.97
2022-12-24T08:50:16.899Z,10.97
2022-12-24T08:52:09.782Z,10.93
2022-12-24T08:53:09.770Z,10.99
2022-12-24T08:55:13.717Z,11.11
2022-12-24T08:56:13.690Z,11.12
2022-12-24T08:58:17.638Z,11.11
2022-12-24T08:59:17.620Z,11.14
2022-12-24T09:01:21.646Z,11.15
2022-12-24T09:02:21.896Z,11.15
2022-12-24T09:04:25.484Z,11.18
2022-12-24T09:05:25.472Z,11.19
2022-12-24T09:07:29.406Z,11.19
2022-12-24T09:08:29.381Z,11.14
2022-12-24T09:10:33.328Z,11.23
2022-12-24T09:11:33.311Z,11.26
2022-12-24T09:13:37.272Z,11.35
2022-12-24T09:14:37.228Z,11.36
2022-12-24T09:16:41.265Z,11.33
2022-12-24T09:17:41.189Z,11.35
2022-12-24T09:19:45.105Z,11.40
2022-12-24T09:20:46.953Z,11.37
2022-12-24T09:22:37.961Z,11.44
2022-12-24T09:23:37.939Z,11.36
2022-12-24T09:25:41.892Z,11.45
2022-12-24T09:26:41.868Z,11.45
2022-12-24T09:28:45.815Z,11.51
2022-12-24T09:29:45.800Z,11.55
2022-12-24T09:31:49.761Z,11.66
2022-12-24T09:32:49.728Z,11.75
2022-12-24T09:33:49.730Z,11.69
2022-12-24T09:34:49.730Z,11.77
2022-12-24T09:35:49.705Z,11.84
2022-12-24T09:36:49.689Z,11.87
2022-12-24T09:37:49.677Z,11.80
2022-12-24T09:38:49.678Z,11.91
2022-12-24T09:39:49.657Z,11.91
2022-12-24T09:40:49.659Z,12.00
2022-12-24T09:41:49.637Z,12.03
2022-12-24T09:42:49.642Z,12.10
2022-12-24T09:43:49.621Z,12.03
2022-12-24T09:44:49.609Z,12.15
2022-12-24T09:45:49.664Z,12.06
2022-12-24T09:46:49.592Z,12.17
2022-12-24T09:47:49.584Z,12.25
2022-12-24T09:48:49.585Z,12.22
2022-12-24T09:49:49.566Z,12.18
2022-12-24T09:50:49.553Z,12.20
2022-12-24T09:51:49.545Z,12.25
2022-12-24T09:52:49.564Z,12.18
2022-12-24T09:53:49.524Z,12.17
2022-12-24T09:54:50.133Z,12.20
2022-12-24T09:55:49.504Z,12.20
2022-12-24T09:56:49.496Z,12.28
2022-12-24T09:57:49.486Z,12.28
2022-12-24T09:58:49.475Z,12.18
2022-12-24T09:59:49.463Z,12.25
2022-12-24T10:00:50.338Z,12.22
2022-12-24T10:01:49.665Z,12.37
2022-12-24T10:02:49.547Z,12.32
2022-12-24T10:03:49.471Z,12.32
2022-12-24T10:04:49.422Z,12.31
2022-12-24T10:05:49.408Z,12.40
2022-12-24T10:06:49.406Z,12.43
2022-12-24T10:07:49.389Z,12.37
2022-12-24T10:08:49.382Z,12.40
2022-12-24T10:09:49.362Z,12.40
2022-12-24T10:10:49.414Z,12.43
2022-12-24T10:11:49.361Z,12.55
2022-12-24T10:12:50.062Z,12.60
2022-12-24T10:13:49.335Z,12.54
2022-12-24T10:14:49.448Z,12.67
2022-12-24T10:15:49.315Z,12.64
2022-12-24T10:16:49.376Z,12.67
2022-12-24T10:17:49.294Z,12.73
2022-12-24T10:18:49.786Z,12.65
2022-12-24T10:19:49.276Z,12.78
2022-12-24T10:20:49.269Z,12.79
2022-12-24T10:21:49.256Z,12.90
2022-12-24T10:22:49.248Z,12.85
2022-12-24T10:23:49.235Z,12.86
2022-12-24T10:24:50.781Z,12.87
2022-12-24T10:25:49.227Z,12.90
2022-12-24T10:26:49.213Z,13.03
2022-12-24T10:27:49.200Z,13.08
2022-12-24T10:28:49.202Z,13.15
2022-12-24T10:29:49.185Z,13.16
2022-12-24T10:30:49.289Z,13.23
2022-12-24T10:31:49.163Z,13.23
2022-12-24T10:32:49.155Z,13.35
2022-12-24T10:33:49.142Z,13.28
2022-12-24T10:34:49.143Z,13.44
2022-12-24T10:35:49.130Z,13.35
2022-12-24T10:36:49.124Z,13.44
2022-12-24T10:37:49.110Z,13.44
2022-12-24T10:38:49.104Z,13.44
2022-12-24T10:39:49.095Z,13.42
2022-12-24T10:40:49.096Z,13.39
2022-12-24T10:41:49.139Z,13.46
2022-12-24T10:42:51.612Z,13.42
2022-12-24T10:43:49.059Z,13.42
2022-12-24T10:44:49.048Z,13.44
2022-12-24T10:45:49.114Z,13.39
2022-12-24T10:46:49.053Z,13.37
2022-12-24T10:47:49.026Z,13.44
2022-12-24T10:48:50.954Z,13.37
2022-12-24T10:49:49.033Z,13.38
2022-12-24T10:50:49.038Z,13.41
2022-12-24T10:51:48.985Z,13.38
2022-12-24T10:52:48.975Z,13.49
2022-12-24T10:53:48.967Z,13.42
2022-12-24T10:54:48.969Z,13.44
2022-12-24T10:55:48.955Z,13.50
2022-12-24T10:56:48.949Z,13.49
2022-12-24T10:57:48.931Z,13.44
2022-12-24T10:58:48.975Z,13.50
2022-12-24T10:59:48.914Z,13.44
2022-12-24T11:00:48.907Z,13.49
2022-12-24T11:01:49.037Z,13.38
2022-12-24T11:02:49.080Z,13.39
2022-12-24T11:03:49.003Z,13.37
2022-12-24T11:04:48.879Z,13.39
2022-12-24T11:05:48.861Z,13.38
2022-12-24T11:06:49.386Z,13.41
2022-12-24T11:07:48.839Z,13.41
2022-12-24T11:08:48.833Z,13.44
2022-12-24T11:09:48.823Z,13.49
2022-12-24T11:10:48.817Z,13.41
2022-12-24T11:11:48.804Z,13.47
2022-12-24T11:13:00.532Z,13.44
2022-12-24T11:13:48.792Z,13.44
2022-12-24T11:14:48.783Z,13.38
2022-12-24T11:15:48.803Z,13.41
2022-12-24T11:16:48.763Z,13.38
2022-12-24T11:17:48.751Z,13.31
2022-12-24T11:18:51.749Z,13.27
2022-12-24T11:19:48.734Z,13.38
2022-12-24T11:20:48.730Z,13.25
2022-12-24T11:21:48.716Z,13.19
2022-12-24T11:22:48.707Z,13.25
2022-12-24T11:23:48.703Z,13.13
2022-12-24T11:24:50.276Z,13.12
2022-12-24T11:25:48.681Z,13.09
2022-12-24T11:26:48.681Z,13.03
2022-12-24T11:27:48.660Z,12.97
2022-12-24T11:28:48.656Z,12.98
2022-12-24T11:29:48.644Z,12.97
2022-12-24T11:30:48.690Z,12.91
2022-12-24T11:31:48.623Z,12.83
2022-12-24T11:32:48.628Z,12.78
2022-12-24T11:33:48.607Z,12.83
2022-12-24T11:34:48.595Z,12.87
2022-12-24T11:35:48.606Z,12.86
2022-12-24T11:36:48.605Z,12.86
2022-12-24T11:37:48.569Z,12.93
2022-12-24T11:38:48.563Z,12.87
2022-12-24T11:39:48.573Z,12.93
2022-12-24T11:40:48.556Z,12.94
2022-12-24T11:41:48.534Z,12.97
2022-12-24T11:42:48.527Z,13.00
2022-12-24T11:43:48.517Z,13.04
2022-12-24T11:44:48.521Z,13.03
2022-12-24T11:45:48.499Z,13.18
2022-12-24T11:46:48.532Z,13.23
2022-12-24T11:47:48.478Z,13.18
2022-12-24T11:48:48.475Z,13.35
2022-12-24T11:49:48.466Z,13.31
2022-12-24T11:50:48.459Z,13.30
2022-12-24T11:51:48.444Z,13.38
2022-12-24T11:52:48.435Z,13.46
2022-12-24T11:53:48.434Z,13.47
2022-12-24T11:54:48.419Z,13.42
2022-12-24T11:55:48.414Z,13.42
2022-12-24T11:56:48.400Z,13.38
2022-12-24T11:57:48.393Z,13.41
2022-12-24T11:58:48.391Z,13.42
2022-12-24T11:59:48.375Z,13.38
2022-12-24T12:00:48.365Z,13.37
2022-12-24T12:01:48.417Z,13.42
2022-12-24T12:02:48.458Z,13.42
2022-12-24T12:03:48.371Z,13.33
2022-12-24T12:04:48.331Z,13.41
2022-12-24T12:05:48.322Z,13.44
2022-12-24T12:06:48.354Z,13.46
2022-12-24T12:07:48.301Z,13.44
2022-12-24T12:08:48.296Z,13.50
2022-12-24T12:09:48.287Z,13.50
2022-12-24T12:10:48.283Z,13.57
2022-12-24T12:11:48.275Z,13.57
2022-12-24T12:12:48.263Z,13.52
2022-12-24T12:13:48.266Z,13.57
2022-12-24T12:14:48.243Z,13.47
2022-12-24T12:15:48.254Z,13.56
2022-12-24T12:16:48.225Z,13.50
2022-12-24T12:17:48.217Z,13.44
2022-12-24T12:18:48.208Z,13.49
2022-12-24T12:19:48.194Z,13.44
2022-12-24T12:20:48.191Z,13.50
2022-12-24T12:21:48.190Z,13.54
2022-12-24T12:22:48.177Z,13.44
2022-12-24T12:23:48.169Z,13.49
2022-12-24T12:24:48.150Z,13.47
2022-12-24T12:25:48.147Z,13.56
2022-12-24T12:26:48.134Z,13.49
2022-12-24T12:27:48.127Z,13.38
2022-12-24T12:28:48.117Z,13.42
2022-12-24T12:29:48.125Z,13.41
2022-12-24T12:30:48.107Z,13.42
2022-12-24T12:31:48.187Z,13.42
2022-12-24T12:32:48.143Z,13.44
2022-12-24T12:33:48.075Z,13.37
2022-12-24T12:34:48.075Z,13.38
2022-12-24T12:35:48.058Z,13.38
2022-12-24T12:36:48.048Z,13.44
2022-12-24T12:37:48.039Z,13.47
2022-12-24T12:38:48.043Z,13.56
2022-12-24T12:39:48.028Z,13.44
2022-12-24T12:40:48.025Z,13.57
2022-12-24T12:41:48.007Z,13.47
2022-12-24T12:42:48.020Z,13.42
2022-12-24T12:43:47.984Z,13.47
2022-12-24T12:44:47.977Z,13.47
2022-12-24T12:45:47.968Z,13.46
2022-12-24T12:46:48.005Z,13.50
2022-12-24T12:47:47.947Z,13.57
2022-12-24T12:48:47.948Z,13.47
2022-12-24T12:49:47.933Z,13.46
2022-12-24T12:50:47.925Z,13.50
2022-12-24T12:51:47.917Z,13.44
2022-12-24T12:52:47.905Z,13.31
2022-12-24T12:53:47.897Z,13.39
2022-12-24T12:54:47.899Z,13.31
2022-12-24T12:55:47.879Z,13.28
2022-12-24T12:56:47.871Z,13.28
2022-12-24T12:57:47.873Z,13.28
2022-12-24T12:58:47.856Z,13.27
2022-12-24T12:59:47.849Z,13.23
2022-12-24T13:00:47.892Z,13.30
2022-12-24T13:01:47.996Z,13.28
2022-12-24T13:02:47.922Z,13.30
2022-12-24T13:03:47.808Z,13.38
2022-12-24T13:04:47.796Z,13.28
2022-12-24T13:05:47.793Z,13.41
2022-12-24T13:06:47.783Z,13.39
2022-12-24T13:07:47.774Z,13.47
2022-12-24T13:08:47.769Z,13.50
2022-12-24T13:09:47.755Z,13.47
2022-12-24T13:10:47.753Z,13.56
2022-12-24T13:11:47.737Z,13.52
2022-12-24T13:12:47.740Z,13.62
2022-12-24T13:13:47.743Z,13.53
2022-12-24T13:14:47.716Z,13.53
2022-12-24T13:15:47.728Z,13.56
2022-12-24T13:16:47.728Z,13.56
2022-12-24T13:17:47.689Z,13.62
2022-12-24T13:18:47.684Z,13.57
2022-12-24T13:19:47.675Z,13.62
2022-12-24T13:20:47.669Z,13.60
2022-12-24T13:21:47.652Z,13.52
2022-12-24T13:22:47.643Z,13.60
2022-12-24T13:23:47.635Z,13.49
2022-12-24T13:24:51.441Z,13.50
2022-12-24T13:25:47.638Z,13.50
2022-12-24T13:26:47.616Z,13.46
2022-12-24T13:27:47.606Z,13.41
2022-12-24T13:28:47.599Z,13.44
2022-12-24T13:29:47.597Z,13.47
2022-12-24T13:30:47.586Z,13.42
2022-12-24T13:31:47.699Z,13.31
2022-12-24T13:32:47.556Z,13.22
2022-12-24T13:33:47.557Z,13.27
2022-12-24T13:34:47.542Z,13.25
2022-12-24T13:35:47.533Z,13.09
2022-12-24T13:36:47.522Z,13.16
2022-12-24T13:37:47.522Z,13.16
2022-12-24T13:38:47.509Z,13.13
2022-12-24T13:39:47.499Z,13.15
2022-12-24T13:40:47.492Z,13.01
2022-12-24T13:41:47.480Z,13.01
2022-12-24T13:42:47.472Z,13.03
2022-12-24T13:43:47.465Z,12.98
2022-12-24T13:44:47.454Z,12.95
2022-12-24T13:45:47.475Z,12.97
2022-12-24T13:46:47.436Z,12.94
2022-12-24T13:47:47.433Z,12.91
2022-12-24T13:48:47.444Z,12.97
2022-12-24T13:49:47.410Z,12.91
2022-12-24T13:50:47.401Z,13.01
2022-12-24T13:51:47.392Z,12.91
2022-12-24T13:52:47.386Z,12.97
2022-12-24T13:53:47.401Z,13.00
2022-12-24T13:54:47.381Z,12.97
2022-12-24T13:55:47.360Z,13.01
2022-12-24T13:56:47.352Z,12.95
2022-12-24T13:57:47.341Z,12.91
2022-12-24T13:58:47.375Z,12.90
2022-12-24T13:59:47.334Z,12.98
2022-12-24T14:00:47.369Z,12.94
2022-12-24T14:01:47.470Z,13.03